sensor_id;sensor_type;location;lat;lon;timestamp;temperature;humidity
55331;DHT22;58851;42.984;20.336;2024-03-25T00:01:00;128.80;6502.40
55331;DHT22;58851;42.984;20.336;2024-03-25T00:03:26;128.90;6502.40
55331;DHT22;58851;42.984;20.336;2024-03-25T00:05:52;153.60;6502.40
55331;DHT22;58851;42.984;20.336;2024-03-25T00:08:17;153.60;6502.40
55331;DHT22;58851;42.984;20.336;2024-03-25T00:10:43;153.70;6502.40
55331;DHT22;58851;42.984;20.336;2024-03-25T00:13:09;153.70;6502.40
55331;DHT22;58851;42.984;20.336;2024-03-25T00:15:36;153.80;6502.40
55331;DHT22;58851;42.984;20.336;2024-03-25T00:18:04;153.80;6502.40
55331;DHT22;58851;42.984;20.336;2024-03-25T00:20:30;153.80;6502.40
55331;DHT22;58851;42.984;20.336;2024-03-25T00:22:55;153.80;6502.40
55331;DHT22;58851;42.984;20.336;2024-03-25T00:25:21;153.70;6502.40
55331;DHT22;58851;42.984;20.336;2024-03-25T00:27:47;153.70;6502.40
55331;DHT22;58851;42.984;20.336;2024-03-25T00:30:13;153.60;6502.40
55331;DHT22;58851;42.984;20.336;2024-03-25T00:32:39;153.60;6502.40
55331;DHT22;58851;42.984;20.336;2024-03-25T00:35:05;153.60;6502.40
55331;DHT22;58851;42.984;20.336;2024-03-25T00:37:31;153.60;6502.40
55331;DHT22;58851;42.984;20.336;2024-03-25T00:39:57;153.70;6502.40
55331;DHT22;58851;42.984;20.336;2024-03-25T00:42:23;153.70;6502.40
55331;DHT22;58851;42.984;20.336;2024-03-25T00:44:49;153.70;6502.40
55331;DHT22;58851;42.984;20.336;2024-03-25T00:47:15;153.70;6502.40
55331;DHT22;58851;42.984;20.336;2024-03-25T00:49:41;153.60;6502.40
55331;DHT22;58851;42.984;20.336;2024-03-25T00:52:07;153.60;6502.40
55331;DHT22;58851;42.984;20.336;2024-03-25T00:54:32;153.60;6502.40
55331;DHT22;58851;42.984;20.336;2024-03-25T00:56:58;153.70;6502.40
55331;DHT22;58851;42.984;20.336;2024-03-25T00:59:24;153.70;6502.40
55331;DHT22;58851;42.984;20.336;2024-03-25T01:01:50;153.70;6502.40
55331;DHT22;58851;42.984;20.336;2024-03-25T01:04:16;153.70;6502.40
55331;DHT22;58851;42.984;20.336;2024-03-25T01:06:42;153.60;6502.40
55331;DHT22;58851;42.984;20.336;2024-03-25T01:09:08;153.70;6502.40
55331;DHT22;58851;42.984;20.336;2024-03-25T01:11:35;153.70;6502.40
55331;DHT22;58851;42.984;20.336;2024-03-25T01:14:01;153.80;6502.40
55331;DHT22;58851;42.984;20.336;2024-03-25T01:16:28;153.80;6502.40
55331;DHT22;58851;42.984;20.336;2024-03-25T01:18:57;153.80;6502.40
55331;DHT22;58851;42.984;20.336;2024-03-25T01:21:24;153.60;6502.40
55331;DHT22;58851;42.984;20.336;2024-03-25T01:23:50;153.60;6502.40
55331;DHT22;58851;42.984;20.336;2024-03-25T01:26:16;128.90;6502.40
55331;DHT22;58851;42.984;20.336;2024-03-25T01:28:42;153.60;6502.40
55331;DHT22;58851;42.984;20.336;2024-03-25T01:31:08;153.70;6502.40
55331;DHT22;58851;42.984;20.336;2024-03-25T01:33:34;128.90;6502.40
55331;DHT22;58851;42.984;20.336;2024-03-25T01:36:00;128.90;6502.40
55331;DHT22;58851;42.984;20.336;2024-03-25T01:38:26;153.60;6502.40
55331;DHT22;58851;42.984;20.336;2024-03-25T01:40:52;153.70;6502.40
55331;DHT22;58851;42.984;20.336;2024-03-25T01:43:18;153.70;6502.40
55331;DHT22;58851;42.984;20.336;2024-03-25T01:45:44;153.70;6502.40
55331;DHT22;58851;42.984;20.336;2024-03-25T01:48:12;153.60;6502.40
55331;DHT22;58851;42.984;20.336;2024-03-25T01:50:43;153.70;6502.40
55331;DHT22;58851;42.984;20.336;2024-03-25T01:53:12;153.80;6502.40
55331;DHT22;58851;42.984;20.336;2024-03-25T01:55:39;153.90;6502.40
55331;DHT22;58851;42.984;20.336;2024-03-25T01:58:09;153.80;6502.40
55331;DHT22;58851;42.984;20.336;2024-03-25T02:00:35;153.80;6502.40
55331;DHT22;58851;42.984;20.336;2024-03-25T02:03:01;153.80;6502.40
55331;DHT22;58851;42.984;20.336;2024-03-25T02:05:28;153.80;6502.40
55331;DHT22;58851;42.984;20.336;2024-03-25T02:07:54;153.90;6502.40
55331;DHT22;58851;42.984;20.336;2024-03-25T02:10:21;153.80;6502.40
55331;DHT22;58851;42.984;20.336;2024-03-25T02:12:47;153.80;6502.40
55331;DHT22;58851;42.984;20.336;2024-03-25T02:15:14;153.80;6502.40
55331;DHT22;58851;42.984;20.336;2024-03-25T02:17:40;153.80;6502.40
55331;DHT22;58851;42.984;20.336;2024-03-25T02:20:07;153.80;6502.40
55331;DHT22;58851;42.984;20.336;2024-03-25T02:22:36;153.80;6502.40
55331;DHT22;58851;42.984;20.336;2024-03-25T02:25:07;153.80;6502.40
55331;DHT22;58851;42.984;20.336;2024-03-25T02:27:37;153.80;6502.40
55331;DHT22;58851;42.984;20.336;2024-03-25T02:32:31;153.70;6502.40
55331;DHT22;58851;42.984;20.336;2024-03-25T02:34:57;153.80;6502.40
55331;DHT22;58851;42.984;20.336;2024-03-25T02:37:25;153.80;6502.40
55331;DHT22;58851;42.984;20.336;2024-03-25T02:39:52;153.70;6502.40
55331;DHT22;58851;42.984;20.336;2024-03-25T02:42:18;153.60;6502.40
55331;DHT22;58851;42.984;20.336;2024-03-25T02:44:45;153.70;6502.40
55331;DHT22;58851;42.984;20.336;2024-03-25T02:47:11;128.90;6502.40
55331;DHT22;58851;42.984;20.336;2024-03-25T02:49:37;153.60;6502.40
55331;DHT22;58851;42.984;20.336;2024-03-25T02:52:03;153.60;6502.40
55331;DHT22;58851;42.984;20.336;2024-03-25T02:54:29;153.70;6502.40
55331;DHT22;58851;42.984;20.336;2024-03-25T02:56:55;153.60;6502.40
55331;DHT22;58851;42.984;20.336;2024-03-25T02:59:20;153.60;6502.40
55331;DHT22;58851;42.984;20.336;2024-03-25T03:01:46;153.60;6502.40
55331;DHT22;58851;42.984;20.336;2024-03-25T03:04:12;128.90;6502.40
55331;DHT22;58851;42.984;20.336;2024-03-25T03:06:38;128.70;6502.40
55331;DHT22;58851;42.984;20.336;2024-03-25T03:09:04;128.70;6502.40
55331;DHT22;58851;42.984;20.336;2024-03-25T03:11:30;128.70;6502.40
55331;DHT22;58851;42.984;20.336;2024-03-25T03:13:56;128.80;6502.40
55331;DHT22;58851;42.984;20.336;2024-03-25T03:16:22;128.90;6502.40
55331;DHT22;58851;42.984;20.336;2024-03-25T03:18:48;128.80;6502.40
55331;DHT22;58851;42.984;20.336;2024-03-25T03:21:14;128.80;6502.40
55331;DHT22;58851;42.984;20.336;2024-03-25T03:23:39;128.80;6502.40
55331;DHT22;58851;42.984;20.336;2024-03-25T03:26:05;128.50;6502.40
55331;DHT22;58851;42.984;20.336;2024-03-25T03:28:31;128.60;6502.40
55331;DHT22;58851;42.984;20.336;2024-03-25T03:30:56;128.60;6502.40
55331;DHT22;58851;42.984;20.336;2024-03-25T03:33:22;128.60;6502.40
55331;DHT22;58851;42.984;20.336;2024-03-25T03:35:49;128.70;6502.40
55331;DHT22;58851;42.984;20.336;2024-03-25T03:38:15;128.70;6502.40
55331;DHT22;58851;42.984;20.336;2024-03-25T03:40:41;128.80;6502.40
55331;DHT22;58851;42.984;20.336;2024-03-25T03:43:06;128.70;6502.40
55331;DHT22;58851;42.984;20.336;2024-03-25T03:45:33;128.60;6502.40
55331;DHT22;58851;42.984;20.336;2024-03-25T03:48:02;128.70;6502.40
55331;DHT22;58851;42.984;20.336;2024-03-25T03:50:28;128.70;6502.40
55331;DHT22;58851;42.984;20.336;2024-03-25T03:52:53;128.70;6502.40
55331;DHT22;58851;42.984;20.336;2024-03-25T03:55:19;128.60;6502.40
55331;DHT22;58851;42.984;20.336;2024-03-25T03:57:45;128.60;6502.40
55331;DHT22;58851;42.984;20.336;2024-03-25T04:00:15;128.50;6502.40
55331;DHT22;58851;42.984;20.336;2024-03-25T04:02:41;128.60;6502.40
55331;DHT22;58851;42.984;20.336;2024-03-25T04:05:07;128.60;6502.40
55331;DHT22;58851;42.984;20.336;2024-03-25T04:07:33;128.60;6502.40
55331;DHT22;58851;42.984;20.336;2024-03-25T04:09:59;128.50;6502.40
55331;DHT22;58851;42.984;20.336;2024-03-25T04:12:25;128.40;6502.40
55331;DHT22;58851;42.984;20.336;2024-03-25T04:14:51;128.50;6502.40
55331;DHT22;58851;42.984;20.336;2024-03-25T04:17:21;128.50;6502.40
55331;DHT22;58851;42.984;20.336;2024-03-25T04:19:48;128.50;6502.40
55331;DHT22;58851;42.984;20.336;2024-03-25T04:22:14;128.50;6502.40
55331;DHT22;58851;42.984;20.336;2024-03-25T04:24:40;128.50;6502.40
55331;DHT22;58851;42.984;20.336;2024-03-25T04:27:06;128.50;6502.40
55331;DHT22;58851;42.984;20.336;2024-03-25T04:29:31;128.50;6502.40
55331;DHT22;58851;42.984;20.336;2024-03-25T04:31:57;128.50;6502.40
55331;DHT22;58851;42.984;20.336;2024-03-25T04:34:23;128.50;6502.40
55331;DHT22;58851;42.984;20.336;2024-03-25T04:36:49;128.50;6502.40
55331;DHT22;58851;42.984;20.336;2024-03-25T04:39:15;128.50;6502.40
55331;DHT22;58851;42.984;20.336;2024-03-25T04:41:41;128.40;6502.40
55331;DHT22;58851;42.984;20.336;2024-03-25T04:44:06;128.30;6502.40
55331;DHT22;58851;42.984;20.336;2024-03-25T04:46:32;128.40;6502.40
55331;DHT22;58851;42.984;20.336;2024-03-25T04:48:58;128.50;6502.40
55331;DHT22;58851;42.984;20.336;2024-03-25T04:51:24;128.30;6502.40
55331;DHT22;58851;42.984;20.336;2024-03-25T04:53:49;128.20;6502.40
55331;DHT22;58851;42.984;20.336;2024-03-25T04:56:15;128.30;6502.40
55331;DHT22;58851;42.984;20.336;2024-03-25T04:58:41;128.40;6502.40
55331;DHT22;58851;42.984;20.336;2024-03-25T05:01:07;128.50;6502.40
55331;DHT22;58851;42.984;20.336;2024-03-25T05:03:32;128.50;6502.40
55331;DHT22;58851;42.984;20.336;2024-03-25T05:05:58;128.60;6502.40
55331;DHT22;58851;42.984;20.336;2024-03-25T05:08:24;128.70;6502.40
55331;DHT22;58851;42.984;20.336;2024-03-25T05:10:50;128.80;6502.40
55331;DHT22;58851;42.984;20.336;2024-03-25T05:13:16;128.90;6502.40
55331;DHT22;58851;42.984;20.336;2024-03-25T05:15:52;128.80;6502.40
55331;DHT22;58851;42.984;20.336;2024-03-25T05:18:18;153.60;6502.40
55331;DHT22;58851;42.984;20.336;2024-03-25T05:20:44;128.90;6502.40
55331;DHT22;58851;42.984;20.336;2024-03-25T05:23:10;128.90;6502.40
55331;DHT22;58851;42.984;20.336;2024-03-25T05:25:36;128.90;6502.40
55331;DHT22;58851;42.984;20.336;2024-03-25T05:28:04;153.60;6502.40
55331;DHT22;58851;42.984;20.336;2024-03-25T05:30:30;153.70;6502.40
55331;DHT22;58851;42.984;20.336;2024-03-25T05:32:56;153.70;6502.40
55331;DHT22;58851;42.984;20.336;2024-03-25T05:35:22;153.70;6502.40
55331;DHT22;58851;42.984;20.336;2024-03-25T05:37:47;153.70;6502.40
55331;DHT22;58851;42.984;20.336;2024-03-25T05:40:13;153.70;6502.40
55331;DHT22;58851;42.984;20.336;2024-03-25T05:42:40;153.70;6502.40
55331;DHT22;58851;42.984;20.336;2024-03-25T05:45:10;153.70;6502.40
55331;DHT22;58851;42.984;20.336;2024-03-25T05:47:35;153.70;6502.40
55331;DHT22;58851;42.984;20.336;2024-03-25T05:50:01;154.00;6502.40
55331;DHT22;58851;42.984;20.336;2024-03-25T05:52:31;154.10;6502.40
55331;DHT22;58851;42.984;20.336;2024-03-25T05:54:57;154.30;6502.40
55331;DHT22;58851;42.984;20.336;2024-03-25T05:57:23;154.30;6502.40
55331;DHT22;58851;42.984;20.336;2024-03-25T05:59:49;154.30;6502.40
55331;DHT22;58851;42.984;20.336;2024-03-25T06:02:15;154.40;6502.40
55331;DHT22;58851;42.984;20.336;2024-03-25T06:04:40;154.50;6502.40
55331;DHT22;58851;42.984;20.336;2024-03-25T06:07:06;179.30;6502.40
55331;DHT22;58851;42.984;20.336;2024-03-25T06:09:32;179.20;6502.40
55331;DHT22;58851;42.984;20.336;2024-03-25T06:11:58;179.30;6502.40
55331;DHT22;58851;42.984;20.336;2024-03-25T06:14:24;179.40;6502.40
55331;DHT22;58851;42.984;20.336;2024-03-25T06:16:49;179.50;6502.40
55331;DHT22;58851;42.984;20.336;2024-03-25T06:19:15;179.60;6502.40
55331;DHT22;58851;42.984;20.336;2024-03-25T06:21:41;179.70;6502.40
55331;DHT22;58851;42.984;20.336;2024-03-25T06:24:08;179.80;6502.40
55331;DHT22;58851;42.984;20.336;2024-03-25T06:26:34;179.80;6502.40
55331;DHT22;58851;42.984;20.336;2024-03-25T06:29:00;180.00;6502.40
55331;DHT22;58851;42.984;20.336;2024-03-25T06:31:26;180.00;6502.40
55331;DHT22;58851;42.984;20.336;2024-03-25T06:34:24;180.10;6502.40
55331;DHT22;58851;42.984;20.336;2024-03-25T06:36:50;204.80;6502.40
55331;DHT22;58851;42.984;20.336;2024-03-25T06:39:15;204.90;6502.40
55331;DHT22;58851;42.984;20.336;2024-03-25T06:41:41;205.20;6502.40
55331;DHT22;58851;42.984;20.336;2024-03-25T06:44:07;205.20;6502.40
55331;DHT22;58851;42.984;20.336;2024-03-25T06:46:33;205.30;6502.40
55331;DHT22;58851;42.984;20.336;2024-03-25T06:48:59;205.40;128.00
55331;DHT22;58851;42.984;20.336;2024-03-25T06:51:25;205.50;435.20
55331;DHT22;58851;42.984;20.336;2024-03-25T06:53:52;205.50;537.60
55331;DHT22;58851;42.984;20.336;2024-03-25T06:56:18;230.50;537.60
55331;DHT22;58851;42.984;20.336;2024-03-25T06:58:43;230.60;6502.40
55331;DHT22;58851;42.984;20.336;2024-03-25T07:01:10;230.70;6502.40
55331;DHT22;58851;42.984;20.336;2024-03-25T07:03:39;205.70;6502.40
55331;DHT22;58851;42.984;20.336;2024-03-25T07:06:05;205.30;6502.40
55331;DHT22;58851;42.984;20.336;2024-03-25T07:08:31;180.10;6502.40
55331;DHT22;58851;42.984;20.336;2024-03-25T07:10:57;204.80;6502.40
55331;DHT22;58851;42.984;20.336;2024-03-25T07:13:24;180.10;6502.40
55331;DHT22;58851;42.984;20.336;2024-03-25T07:15:50;179.70;6502.40
55331;DHT22;58851;42.984;20.336;2024-03-25T07:18:16;179.70;6502.40
55331;DHT22;58851;42.984;20.336;2024-03-25T07:20:42;179.50;6502.40
55331;DHT22;58851;42.984;20.336;2024-03-25T07:23:09;179.40;537.60
55331;DHT22;58851;42.984;20.336;2024-03-25T07:25:35;179.50;537.60
55331;DHT22;58851;42.984;20.336;2024-03-25T07:28:01;179.40;563.20
55331;DHT22;58851;42.984;20.336;2024-03-25T07:30:27;179.50;6502.40
55331;DHT22;58851;42.984;20.336;2024-03-25T07:32:58;179.50;6502.40
55331;DHT22;58851;42.984;20.336;2024-03-25T07:35:24;179.30;6502.40
55331;DHT22;58851;42.984;20.336;2024-03-25T07:37:50;179.50;6502.40
55331;DHT22;58851;42.984;20.336;2024-03-25T07:40:21;154.50;6502.40
55331;DHT22;58851;42.984;20.336;2024-03-25T07:42:48;154.40;6502.40
55331;DHT22;58851;42.984;20.336;2024-03-25T07:45:16;154.30;6502.40
55331;DHT22;58851;42.984;20.336;2024-03-25T07:47:42;154.40;6502.40
55331;DHT22;58851;42.984;20.336;2024-03-25T07:50:08;154.40;6502.40
55331;DHT22;58851;42.984;20.336;2024-03-25T07:52:34;179.20;6502.40
55331;DHT22;58851;42.984;20.336;2024-03-25T07:55:06;154.40;6502.40
55331;DHT22;58851;42.984;20.336;2024-03-25T07:57:32;179.20;6502.40
55331;DHT22;58851;42.984;20.336;2024-03-25T07:59:57;179.20;6502.40
55331;DHT22;58851;42.984;20.336;2024-03-25T08:02:24;179.30;512.00
55331;DHT22;58851;42.984;20.336;2024-03-25T08:04:49;179.60;6502.40
55331;DHT22;58851;42.984;20.336;2024-03-25T08:07:15;179.60;6502.40
55331;DHT22;58851;42.984;20.336;2024-03-25T08:09:41;179.70;6502.40
55331;DHT22;58851;42.984;20.336;2024-03-25T08:12:07;179.70;537.60
55331;DHT22;58851;42.984;20.336;2024-03-25T08:14:32;179.80;537.60
55331;DHT22;58851;42.984;20.336;2024-03-25T08:16:58;179.60;486.40
55331;DHT22;58851;42.984;20.336;2024-03-25T08:19:24;179.50;460.80
55331;DHT22;58851;42.984;20.336;2024-03-25T08:21:50;179.80;460.80
55331;DHT22;58851;42.984;20.336;2024-03-25T08:24:16;180.10;281.60
55331;DHT22;58851;42.984;20.336;2024-03-25T08:26:42;204.80;128.00
55331;DHT22;58851;42.984;20.336;2024-03-25T08:29:08;205.20;153.60
55331;DHT22;58851;42.984;20.336;2024-03-25T08:31:33;205.00;128.00
55331;DHT22;58851;42.984;20.336;2024-03-25T08:33:59;204.80;128.00
55331;DHT22;58851;42.984;20.336;2024-03-25T08:36:25;204.80;6502.40
55331;DHT22;58851;42.984;20.336;2024-03-25T08:38:51;204.90;204.80
55331;DHT22;58851;42.984;20.336;2024-03-25T08:41:16;204.80;230.40
55331;DHT22;58851;42.984;20.336;2024-03-25T08:43:42;204.80;256.00
55331;DHT22;58851;42.984;20.336;2024-03-25T08:46:08;179.80;128.00
55331;DHT22;58851;42.984;20.336;2024-03-25T08:48:34;179.70;128.00
55331;DHT22;58851;42.984;20.336;2024-03-25T08:50:59;179.80;281.60
55331;DHT22;58851;42.984;20.336;2024-03-25T08:53:25;204.80;153.60
55331;DHT22;58851;42.984;20.336;2024-03-25T08:55:51;204.90;6502.40
55331;DHT22;58851;42.984;20.336;2024-03-25T08:58:16;205.20;6502.40
55331;DHT22;58851;42.984;20.336;2024-03-25T09:00:43;205.60;6502.40
55331;DHT22;58851;42.984;20.336;2024-03-25T09:03:09;205.60;6502.40
55331;DHT22;58851;42.984;20.336;2024-03-25T09:05:36;205.70;6502.40
55331;DHT22;58851;42.984;20.336;2024-03-25T09:08:06;205.60;6502.40
55331;DHT22;58851;42.984;20.336;2024-03-25T09:10:32;205.20;6502.40
55331;DHT22;58851;42.984;20.336;2024-03-25T09:13:16;205.00;6502.40
55331;DHT22;58851;42.984;20.336;2024-03-25T09:15:42;205.00;6502.40
55331;DHT22;58851;42.984;20.336;2024-03-25T09:18:08;205.20;6502.40
55331;DHT22;58851;42.984;20.336;2024-03-25T09:20:34;205.30;6502.40
55331;DHT22;58851;42.984;20.336;2024-03-25T09:23:00;205.50;6502.40
55331;DHT22;58851;42.984;20.336;2024-03-25T09:25:26;230.50;6502.40
55331;DHT22;58851;42.984;20.336;2024-03-25T09:27:51;205.60;6502.40
55331;DHT22;58851;42.984;20.336;2024-03-25T09:30:17;230.60;6502.40
55331;DHT22;58851;42.984;20.336;2024-03-25T09:32:46;230.50;6502.40
55331;DHT22;58851;42.984;20.336;2024-03-25T09:35:12;230.70;6502.40
55331;DHT22;58851;42.984;20.336;2024-03-25T09:37:38;230.40;6502.40
55331;DHT22;58851;42.984;20.336;2024-03-25T09:40:04;230.60;6502.40
55331;DHT22;58851;42.984;20.336;2024-03-25T09:42:46;231.10;6502.40
55331;DHT22;58851;42.984;20.336;2024-03-25T09:45:15;231.10;6502.40
55331;DHT22;58851;42.984;20.336;2024-03-25T09:47:46;230.50;6502.40
55331;DHT22;58851;42.984;20.336;2024-03-25T09:50:15;230.70;6502.40
55331;DHT22;58851;42.984;20.336;2024-03-25T09:52:47;230.90;6502.40
55331;DHT22;58851;42.984;20.336;2024-03-25T09:55:13;231.00;6502.40
55331;DHT22;58851;42.984;20.336;2024-03-25T09:57:39;256.00;6502.40
55331;DHT22;58851;42.984;20.336;2024-03-25T10:00:08;231.10;6502.40
55331;DHT22;58851;42.984;20.336;2024-03-25T10:02:41;231.10;6502.40
55331;DHT22;58851;42.984;20.336;2024-03-25T10:05:07;230.90;6502.40
55331;DHT22;58851;42.984;20.336;2024-03-25T10:07:34;230.80;6502.40
55331;DHT22;58851;42.984;20.336;2024-03-25T10:10:03;230.50;6502.40
55331;DHT22;58851;42.984;20.336;2024-03-25T10:12:30;205.60;6502.40
55331;DHT22;58851;42.984;20.336;2024-03-25T10:14:57;205.20;6502.40
55331;DHT22;58851;42.984;20.336;2024-03-25T10:17:23;205.50;6502.40
55331;DHT22;58851;42.984;20.336;2024-03-25T10:19:49;205.40;6502.40
55331;DHT22;58851;42.984;20.336;2024-03-25T10:22:14;205.40;6502.40
55331;DHT22;58851;42.984;20.336;2024-03-25T10:24:42;205.20;6502.40
55331;DHT22;58851;42.984;20.336;2024-03-25T10:27:17;205.30;6502.40
55331;DHT22;58851;42.984;20.336;2024-03-25T10:29:46;205.60;6502.40
55331;DHT22;58851;42.984;20.336;2024-03-25T10:32:13;205.70;6502.40
55331;DHT22;58851;42.984;20.336;2024-03-25T10:34:39;230.50;6502.40
55331;DHT22;58851;42.984;20.336;2024-03-25T10:37:08;230.70;6502.40
55331;DHT22;58851;42.984;20.336;2024-03-25T10:39:40;230.60;6502.40
55331;DHT22;58851;42.984;20.336;2024-03-25T10:42:11;230.80;6502.40
55331;DHT22;58851;42.984;20.336;2024-03-25T10:44:38;231.10;6502.40
55331;DHT22;58851;42.984;20.336;2024-03-25T10:47:05;231.30;6502.40
55331;DHT22;58851;42.984;20.336;2024-03-25T10:52:07;256.70;6502.40
55331;DHT22;58851;42.984;20.336;2024-03-25T10:54:35;256.40;6502.40
55331;DHT22;58851;42.984;20.336;2024-03-25T10:57:03;256.40;6502.40
55331;DHT22;58851;42.984;20.336;2024-03-25T10:59:30;256.20;6502.40
55331;DHT22;58851;42.984;20.336;2024-03-25T11:01:56;256.10;6502.40
55331;DHT22;58851;42.984;20.336;2024-03-25T11:04:23;256.20;6502.40
55331;DHT22;58851;42.984;20.336;2024-03-25T11:06:49;256.10;6502.40
55331;DHT22;58851;42.984;20.336;2024-03-25T11:09:25;256.40;6502.40
55331;DHT22;58851;42.984;20.336;2024-03-25T11:11:53;256.20;6502.40
55331;DHT22;58851;42.984;20.336;2024-03-25T11:14:19;231.30;6502.40
55331;DHT22;58851;42.984;20.336;2024-03-25T11:16:55;256.00;6502.40
55331;DHT22;58851;42.984;20.336;2024-03-25T11:19:25;256.20;6502.40
55331;DHT22;58851;42.984;20.336;2024-03-25T11:21:51;256.20;6502.40
55331;DHT22;58851;42.984;20.336;2024-03-25T11:24:30;256.50;6502.40
55331;DHT22;58851;42.984;20.336;2024-03-25T11:26:56;256.80;6502.40
55331;DHT22;58851;42.984;20.336;2024-03-25T11:29:22;256.60;6502.40
55331;DHT22;58851;42.984;20.336;2024-03-25T11:31:53;256.70;6502.40
55331;DHT22;58851;42.984;20.336;2024-03-25T11:34:21;256.20;6502.40
55331;DHT22;58851;42.984;20.336;2024-03-25T11:36:47;231.10;6502.40
55331;DHT22;58851;42.984;20.336;2024-03-25T11:39:14;231.00;6502.40
55331;DHT22;58851;42.984;20.336;2024-03-25T11:41:40;231.10;6502.40
55331;DHT22;58851;42.984;20.336;2024-03-25T11:44:10;256.10;6502.40
55331;DHT22;58851;42.984;20.336;2024-03-25T11:46:38;256.70;6502.40
55331;DHT22;58851;42.984;20.336;2024-03-25T11:49:13;256.60;6502.40
55331;DHT22;58851;42.984;20.336;2024-03-25T11:51:40;256.90;6502.40
55331;DHT22;58851;42.984;20.336;2024-03-25T11:54:10;281.70;6528.00
55331;DHT22;58851;42.984;20.336;2024-03-25T11:56:37;281.80;6528.00
55331;DHT22;58851;42.984;20.336;2024-03-25T11:59:06;256.80;6502.40
55331;DHT22;58851;42.984;20.336;2024-03-25T12:01:32;282.00;6528.00
55331;DHT22;58851;42.984;20.336;2024-03-25T12:04:18;282.20;6528.00
55331;DHT22;58851;42.984;20.336;2024-03-25T12:06:45;281.90;6528.00
55331;DHT22;58851;42.984;20.336;2024-03-25T12:09:11;256.90;6502.40
55331;DHT22;58851;42.984;20.336;2024-03-25T12:11:56;256.10;6502.40
55331;DHT22;58851;42.984;20.336;2024-03-25T12:14:25;256.00;6502.40
55331;DHT22;58851;42.984;20.336;2024-03-25T12:16:55;256.00;6502.40
55331;DHT22;58851;42.984;20.336;2024-03-25T12:19:23;256.30;6502.40
55331;DHT22;58851;42.984;20.336;2024-03-25T12:21:49;256.80;6502.40
55331;DHT22;58851;42.984;20.336;2024-03-25T12:24:15;256.80;6502.40
55331;DHT22;58851;42.984;20.336;2024-03-25T12:26:41;282.00;6528.00
55331;DHT22;58851;42.984;20.336;2024-03-25T12:29:07;282.10;6528.00
55331;DHT22;58851;42.984;20.336;2024-03-25T12:31:33;282.30;6528.00
55331;DHT22;58851;42.984;20.336;2024-03-25T12:33:59;282.50;6528.00
55331;DHT22;58851;42.984;20.336;2024-03-25T12:36:25;307.30;128.00
55331;DHT22;58851;42.984;20.336;2024-03-25T12:38:56;307.60;128.00
55331;DHT22;58851;42.984;20.336;2024-03-25T12:41:23;332.90;128.00
55331;DHT22;58851;42.984;20.336;2024-03-25T12:43:50;333.00;128.00
55331;DHT22;58851;42.984;20.336;2024-03-25T12:46:17;307.90;128.00
55331;DHT22;58851;42.984;20.336;2024-03-25T12:48:43;308.10;128.00
55331;DHT22;58851;42.984;20.336;2024-03-25T12:51:13;307.60;128.00
55331;DHT22;58851;42.984;20.336;2024-03-25T12:53:39;307.90;128.00
55331;DHT22;58851;42.984;20.336;2024-03-25T12:56:05;307.70;128.00
55331;DHT22;58851;42.984;20.336;2024-03-25T12:58:31;307.50;128.00
55331;DHT22;58851;42.984;20.336;2024-03-25T13:00:56;282.50;6528.00
55331;DHT22;58851;42.984;20.336;2024-03-25T13:03:22;282.50;6528.00
55331;DHT22;58851;42.984;20.336;2024-03-25T13:05:48;307.20;128.00
55331;DHT22;58851;42.984;20.336;2024-03-25T13:08:14;307.60;128.00
55331;DHT22;58851;42.984;20.336;2024-03-25T13:10:40;332.90;128.00
55331;DHT22;58851;42.984;20.336;2024-03-25T13:13:06;333.00;128.00
55331;DHT22;58851;42.984;20.336;2024-03-25T13:15:32;332.90;128.00
55331;DHT22;58851;42.984;20.336;2024-03-25T13:17:58;333.00;128.00
55331;DHT22;58851;42.984;20.336;2024-03-25T13:20:23;333.50;128.00
55331;DHT22;58851;42.984;20.336;2024-03-25T13:22:53;333.50;128.00
55331;DHT22;58851;42.984;20.336;2024-03-25T13:25:21;333.00;128.00
55331;DHT22;58851;42.984;20.336;2024-03-25T13:27:47;333.20;563.20
55331;DHT22;58851;42.984;20.336;2024-03-25T13:30:13;333.40;128.00
55331;DHT22;58851;42.984;20.336;2024-03-25T13:32:39;333.00;204.80
55331;DHT22;58851;42.984;20.336;2024-03-25T13:35:04;333.50;128.00
55331;DHT22;58851;42.984;20.336;2024-03-25T13:37:31;358.40;256.00
55331;DHT22;58851;42.984;20.336;2024-03-25T13:39:57;358.40;409.60
55331;DHT22;58851;42.984;20.336;2024-03-25T13:42:23;358.90;128.00
55331;DHT22;58851;42.984;20.336;2024-03-25T13:44:49;358.80;128.00
55331;DHT22;58851;42.984;20.336;2024-03-25T13:47:15;359.00;128.00
55331;DHT22;58851;42.984;20.336;2024-03-25T13:49:40;384.00;128.00
55331;DHT22;58851;42.984;20.336;2024-03-25T13:52:06;384.30;128.00
55331;DHT22;58851;42.984;20.336;2024-03-25T13:54:32;384.70;128.00
55331;DHT22;58851;42.984;20.336;2024-03-25T13:56:58;384.30;128.00
55331;DHT22;58851;42.984;20.336;2024-03-25T13:59:24;384.00;128.00
55331;DHT22;58851;42.984;20.336;2024-03-25T14:01:50;359.20;128.00
55331;DHT22;58851;42.984;20.336;2024-03-25T14:04:17;358.50;128.00
55331;DHT22;58851;42.984;20.336;2024-03-25T14:06:44;358.80;128.00
55331;DHT22;58851;42.984;20.336;2024-03-25T14:09:23;384.00;128.00
55331;DHT22;58851;42.984;20.336;2024-03-25T14:11:50;409.60;128.00
55331;DHT22;58851;42.984;20.336;2024-03-25T14:14:16;410.20;128.00
55331;DHT22;58851;42.984;20.336;2024-03-25T14:16:41;410.40;128.00
55331;DHT22;58851;42.984;20.336;2024-03-25T14:19:07;435.60;128.00
55331;DHT22;58851;42.984;20.336;2024-03-25T14:21:33;460.80;128.00
55331;DHT22;58851;42.984;20.336;2024-03-25T14:23:59;461.20;128.00
55331;DHT22;58851;42.984;20.336;2024-03-25T14:26:24;461.10;128.00
55331;DHT22;58851;42.984;20.336;2024-03-25T14:28:50;461.20;128.00
55331;DHT22;58851;42.984;20.336;2024-03-25T14:31:16;461.40;128.00
55331;DHT22;58851;42.984;20.336;2024-03-25T14:33:42;487.10;128.00
55331;DHT22;58851;42.984;20.336;2024-03-25T14:36:07;487.10;128.00
55331;DHT22;58851;42.984;20.336;2024-03-25T14:38:33;512.20;128.00
55331;DHT22;58851;42.984;20.336;2024-03-25T14:41:00;461.70;128.00